sensor_id;sensor_type;location;lat;lon;timestamp;temperature;humidity
4673;DHT22;61885;53.560;9.940;2024-03-29T00:01:00;8.00;82.60
4673;DHT22;61885;53.560;9.940;2024-03-29T00:03:00;8.00;82.60
4673;DHT22;61885;53.560;9.940;2024-03-29T00:05:01;8.00;82.90
4673;DHT22;61885;53.560;9.940;2024-03-29T00:07:02;8.00;82.70
4673;DHT22;61885;53.560;9.940;2024-03-29T00:09:03;8.00;82.50
4673;DHT22;61885;53.560;9.940;2024-03-29T00:11:04;7.90;82.60
4673;DHT22;61885;53.560;9.940;2024-03-29T00:13:06;8.00;82.80
4673;DHT22;61885;53.560;9.940;2024-03-29T00:15:08;8.00;82.90
4673;DHT22;61885;53.560;9.940;2024-03-29T00:17:09;8.00;82.40
4673;DHT22;61885;53.560;9.940;2024-03-29T00:19:10;8.00;82.40
4673;DHT22;61885;53.560;9.940;2024-03-29T00:21:11;8.00;82.80
4673;DHT22;61885;53.560;9.940;2024-03-29T00:23:12;7.90;82.80
4673;DHT22;61885;53.560;9.940;2024-03-29T00:25:13;7.80;82.90
4673;DHT22;61885;53.560;9.940;2024-03-29T00:27:14;7.80;82.70
4673;DHT22;61885;53.560;9.940;2024-03-29T00:29:14;7.90;82.70
4673;DHT22;61885;53.560;9.940;2024-03-29T00:31:17;7.80;83.10
4673;DHT22;61885;53.560;9.940;2024-03-29T00:33:18;7.80;83.10
4673;DHT22;61885;53.560;9.940;2024-03-29T00:35:19;7.80;83.00
4673;DHT22;61885;53.560;9.940;2024-03-29T00:37:20;7.80;83.40
4673;DHT22;61885;53.560;9.940;2024-03-29T00:39:20;7.70;83.40
4673;DHT22;61885;53.560;9.940;2024-03-29T00:41:21;7.60;83.30
4673;DHT22;61885;53.560;9.940;2024-03-29T00:43:22;7.70;83.30
4673;DHT22;61885;53.560;9.940;2024-03-29T00:45:23;7.70;83.10
4673;DHT22;61885;53.560;9.940;2024-03-29T00:47:25;7.50;83.20
4673;DHT22;61885;53.560;9.940;2024-03-29T00:49:26;7.60;83.30
4673;DHT22;61885;53.560;9.940;2024-03-29T00:51:27;7.50;83.50
4673;DHT22;61885;53.560;9.940;2024-03-29T00:53:28;7.60;83.60
4673;DHT22;61885;53.560;9.940;2024-03-29T00:55:29;7.50;83.50
4673;DHT22;61885;53.560;9.940;2024-03-29T00:57:30;7.50;83.50
4673;DHT22;61885;53.560;9.940;2024-03-29T00:59:31;7.50;83.40
4673;DHT22;61885;53.560;9.940;2024-03-29T01:01:32;7.50;83.50
4673;DHT22;61885;53.560;9.940;2024-03-29T01:03:34;7.60;83.80
4673;DHT22;61885;53.560;9.940;2024-03-29T01:05:35;7.50;84.20
4673;DHT22;61885;53.560;9.940;2024-03-29T01:07:36;7.40;84.40
4673;DHT22;61885;53.560;9.940;2024-03-29T01:09:37;7.10;84.80
4673;DHT22;61885;53.560;9.940;2024-03-29T01:11:38;7.20;85.30
4673;DHT22;61885;53.560;9.940;2024-03-29T01:13:39;7.20;85.40
4673;DHT22;61885;53.560;9.940;2024-03-29T01:15:40;7.00;85.90
4673;DHT22;61885;53.560;9.940;2024-03-29T01:17:41;7.00;86.20
4673;DHT22;61885;53.560;9.940;2024-03-29T01:19:43;6.90;86.20
4673;DHT22;61885;53.560;9.940;2024-03-29T01:21:44;7.10;86.30
4673;DHT22;61885;53.560;9.940;2024-03-29T01:23:45;7.00;86.30
4673;DHT22;61885;53.560;9.940;2024-03-29T01:25:46;7.00;86.40
4673;DHT22;61885;53.560;9.940;2024-03-29T01:27:47;6.90;86.50
4673;DHT22;61885;53.560;9.940;2024-03-29T01:29:48;6.90;86.70
4673;DHT22;61885;53.560;9.940;2024-03-29T01:31:49;6.90;86.70
4673;DHT22;61885;53.560;9.940;2024-03-29T01:33:50;6.80;86.80
4673;DHT22;61885;53.560;9.940;2024-03-29T01:35:53;6.80;86.90
4673;DHT22;61885;53.560;9.940;2024-03-29T01:37:54;6.70;87.10
4673;DHT22;61885;53.560;9.940;2024-03-29T01:39:55;6.90;87.20
4673;DHT22;61885;53.560;9.940;2024-03-29T01:41:56;6.70;87.30
4673;DHT22;61885;53.560;9.940;2024-03-29T01:43:57;6.60;87.50
4673;DHT22;61885;53.560;9.940;2024-03-29T01:45:59;6.60;87.60
4673;DHT22;61885;53.560;9.940;2024-03-29T01:48:00;6.60;87.70
4673;DHT22;61885;53.560;9.940;2024-03-29T01:50:03;6.70;87.70
4673;DHT22;61885;53.560;9.940;2024-03-29T01:52:06;6.50;87.90
4673;DHT22;61885;53.560;9.940;2024-03-29T01:54:09;6.60;88.00
4673;DHT22;61885;53.560;9.940;2024-03-29T01:56:12;6.60;88.20
4673;DHT22;61885;53.560;9.940;2024-03-29T01:58:14;6.40;88.00
4673;DHT22;61885;53.560;9.940;2024-03-29T02:00:16;6.40;88.20
4673;DHT22;61885;53.560;9.940;2024-03-29T02:02:18;6.40;88.20
4673;DHT22;61885;53.560;9.940;2024-03-29T02:04:21;6.50;88.40
4673;DHT22;61885;53.560;9.940;2024-03-29T02:06:23;6.40;88.50
4673;DHT22;61885;53.560;9.940;2024-03-29T02:08:25;6.50;88.30
4673;DHT22;61885;53.560;9.940;2024-03-29T02:10:27;6.50;88.20
4673;DHT22;61885;53.560;9.940;2024-03-29T02:12:28;6.40;88.20
4673;DHT22;61885;53.560;9.940;2024-03-29T02:14:31;6.40;88.50
4673;DHT22;61885;53.560;9.940;2024-03-29T02:16:33;6.40;88.60
4673;DHT22;61885;53.560;9.940;2024-03-29T02:18:34;6.40;88.50
4673;DHT22;61885;53.560;9.940;2024-03-29T02:20:36;6.30;88.80
4673;DHT22;61885;53.560;9.940;2024-03-29T02:22:46;6.40;88.90
4673;DHT22;61885;53.560;9.940;2024-03-29T02:24:52;6.20;88.90
4673;DHT22;61885;53.560;9.940;2024-03-29T02:26:56;6.20;89.20
4673;DHT22;61885;53.560;9.940;2024-03-29T02:28:57;6.20;89.00
4673;DHT22;61885;53.560;9.940;2024-03-29T02:30:59;6.30;89.00
4673;DHT22;61885;53.560;9.940;2024-03-29T02:33:01;6.30;88.80
4673;DHT22;61885;53.560;9.940;2024-03-29T02:35:03;6.40;88.80
4673;DHT22;61885;53.560;9.940;2024-03-29T02:37:05;6.40;88.60
4673;DHT22;61885;53.560;9.940;2024-03-29T02:39:07;6.40;88.40
4673;DHT22;61885;53.560;9.940;2024-03-29T02:41:10;6.40;88.40
4673;DHT22;61885;53.560;9.940;2024-03-29T02:43:11;6.30;88.60
4673;DHT22;61885;53.560;9.940;2024-03-29T02:45:13;6.40;88.50
4673;DHT22;61885;53.560;9.940;2024-03-29T02:47:13;6.40;88.50
4673;DHT22;61885;53.560;9.940;2024-03-29T02:52:17;6.30;88.20
4673;DHT22;61885;53.560;9.940;2024-03-29T02:54:19;6.20;88.20
4673;DHT22;61885;53.560;9.940;2024-03-29T02:56:21;6.20;88.20
4673;DHT22;61885;53.560;9.940;2024-03-29T02:58:25;6.30;88.30
4673;DHT22;61885;53.560;9.940;2024-03-29T03:00:26;6.20;88.10
4673;DHT22;61885;53.560;9.940;2024-03-29T03:02:27;6.20;88.30
4673;DHT22;61885;53.560;9.940;2024-03-29T03:04:29;6.20;88.40
4673;DHT22;61885;53.560;9.940;2024-03-29T03:06:31;6.10;88.60
4673;DHT22;61885;53.560;9.940;2024-03-29T03:08:33;6.20;88.60
4673;DHT22;61885;53.560;9.940;2024-03-29T03:10:52;6.10;88.60
4673;DHT22;61885;53.560;9.940;2024-03-29T03:12:58;6.10;88.70
4673;DHT22;61885;53.560;9.940;2024-03-29T03:15:00;6.20;88.60
4673;DHT22;61885;53.560;9.940;2024-03-29T03:17:01;6.20;88.40
4673;DHT22;61885;53.560;9.940;2024-03-29T03:19:02;6.10;88.20
4673;DHT22;61885;53.560;9.940;2024-03-29T03:21:04;6.20;88.50
4673;DHT22;61885;53.560;9.940;2024-03-29T03:23:05;6.20;88.70
4673;DHT22;61885;53.560;9.940;2024-03-29T03:25:07;6.10;88.70
4673;DHT22;61885;53.560;9.940;2024-03-29T03:27:09;6.00;88.80
4673;DHT22;61885;53.560;9.940;2024-03-29T03:29:12;6.20;88.80
4673;DHT22;61885;53.560;9.940;2024-03-29T03:31:13;6.20;88.70
4673;DHT22;61885;53.560;9.940;2024-03-29T03:33:14;6.10;88.60
4673;DHT22;61885;53.560;9.940;2024-03-29T03:35:16;6.20;88.50
4673;DHT22;61885;53.560;9.940;2024-03-29T03:37:18;6.10;88.50
4673;DHT22;61885;53.560;9.940;2024-03-29T03:39:18;6.20;88.30
4673;DHT22;61885;53.560;9.940;2024-03-29T03:41:20;6.10;88.10
4673;DHT22;61885;53.560;9.940;2024-03-29T03:43:21;6.30;88.00
4673;DHT22;61885;53.560;9.940;2024-03-29T03:45:24;6.10;87.70
4673;DHT22;61885;53.560;9.940;2024-03-29T03:47:25;6.20;87.60
4673;DHT22;61885;53.560;9.940;2024-03-29T03:49:26;6.30;87.40
4673;DHT22;61885;53.560;9.940;2024-03-29T03:51:27;6.20;87.40
4673;DHT22;61885;53.560;9.940;2024-03-29T03:53:28;6.30;87.60
4673;DHT22;61885;53.560;9.940;2024-03-29T03:55:30;6.30;87.70
4673;DHT22;61885;53.560;9.940;2024-03-29T03:57:31;6.20;87.70
4673;DHT22;61885;53.560;9.940;2024-03-29T03:59:34;6.20;87.60
4673;DHT22;61885;53.560;9.940;2024-03-29T04:01:36;6.20;87.70
4673;DHT22;61885;53.560;9.940;2024-03-29T04:03:38;6.20;87.70
4673;DHT22;61885;53.560;9.940;2024-03-29T04:05:40;6.30;87.70
4673;DHT22;61885;53.560;9.940;2024-03-29T04:07:42;6.20;87.80
4673;DHT22;61885;53.560;9.940;2024-03-29T04:09:42;6.10;87.90
4673;DHT22;61885;53.560;9.940;2024-03-29T04:11:44;6.10;87.90
4673;DHT22;61885;53.560;9.940;2024-03-29T04:13:45;6.20;88.10
4673;DHT22;61885;53.560;9.940;2024-03-29T04:15:47;6.10;88.40
4673;DHT22;61885;53.560;9.940;2024-03-29T04:17:50;5.90;88.60
4673;DHT22;61885;53.560;9.940;2024-03-29T04:19:52;6.00;88.90
4673;DHT22;61885;53.560;9.940;2024-03-29T04:21:53;6.00;89.30
4673;DHT22;61885;53.560;9.940;2024-03-29T04:23:55;5.80;89.20
4673;DHT22;61885;53.560;9.940;2024-03-29T04:25:57;5.90;89.40
4673;DHT22;61885;53.560;9.940;2024-03-29T04:27:58;5.90;89.50
4673;DHT22;61885;53.560;9.940;2024-03-29T04:30:00;5.90;89.50
4673;DHT22;61885;53.560;9.940;2024-03-29T04:32:01;6.00;89.50
4673;DHT22;61885;53.560;9.940;2024-03-29T04:34:04;5.80;89.20
4673;DHT22;61885;53.560;9.940;2024-03-29T04:36:06;6.00;89.40
4673;DHT22;61885;53.560;9.940;2024-03-29T04:38:08;5.90;88.80
4673;DHT22;61885;53.560;9.940;2024-03-29T04:40:10;6.10;88.70
4673;DHT22;61885;53.560;9.940;2024-03-29T04:42:12;6.00;88.60
4673;DHT22;61885;53.560;9.940;2024-03-29T04:44:23;5.90;88.40
4673;DHT22;61885;53.560;9.940;2024-03-29T04:46:25;6.10;88.50
4673;DHT22;61885;53.560;9.940;2024-03-29T04:48:27;5.90;88.40
4673;DHT22;61885;53.560;9.940;2024-03-29T04:50:29;6.00;88.30
4673;DHT22;61885;53.560;9.940;2024-03-29T04:52:31;6.00;88.50
4673;DHT22;61885;53.560;9.940;2024-03-29T04:54:33;6.10;88.40
4673;DHT22;61885;53.560;9.940;2024-03-29T04:56:35;6.10;88.30
4673;DHT22;61885;53.560;9.940;2024-03-29T04:58:36;6.20;88.10
4673;DHT22;61885;53.560;9.940;2024-03-29T05:00:38;6.20;88.00
4673;DHT22;61885;53.560;9.940;2024-03-29T05:02:39;6.20;87.90
4673;DHT22;61885;53.560;9.940;2024-03-29T05:04:41;6.20;87.50
4673;DHT22;61885;53.560;9.940;2024-03-29T05:06:45;6.30;87.40
4673;DHT22;61885;53.560;9.940;2024-03-29T05:08:46;6.30;87.20
4673;DHT22;61885;53.560;9.940;2024-03-29T05:10:49;6.40;87.30
4673;DHT22;61885;53.560;9.940;2024-03-29T05:12:51;6.40;87.20
4673;DHT22;61885;53.560;9.940;2024-03-29T05:14:54;6.30;87.20
4673;DHT22;61885;53.560;9.940;2024-03-29T05:16:56;6.30;87.00
4673;DHT22;61885;53.560;9.940;2024-03-29T05:18:58;6.40;86.50
4673;DHT22;61885;53.560;9.940;2024-03-29T05:20:59;6.40;86.60
4673;DHT22;61885;53.560;9.940;2024-03-29T05:23:02;6.50;86.40
4673;DHT22;61885;53.560;9.940;2024-03-29T05:25:03;6.50;86.60
4673;DHT22;61885;53.560;9.940;2024-03-29T05:27:08;6.50;86.60
4673;DHT22;61885;53.560;9.940;2024-03-29T05:29:10;6.60;85.90
4673;DHT22;61885;53.560;9.940;2024-03-29T05:31:13;6.50;86.00
4673;DHT22;61885;53.560;9.940;2024-03-29T05:33:15;6.70;85.30
4673;DHT22;61885;53.560;9.940;2024-03-29T05:35:17;6.70;85.20
4673;DHT22;61885;53.560;9.940;2024-03-29T05:37:19;6.70;85.10
4673;DHT22;61885;53.560;9.940;2024-03-29T05:39:22;6.70;85.20
4673;DHT22;61885;53.560;9.940;2024-03-29T05:41:24;6.80;84.80
4673;DHT22;61885;53.560;9.940;2024-03-29T05:43:25;6.80;84.80
4673;DHT22;61885;53.560;9.940;2024-03-29T05:45:28;6.80;84.80
4673;DHT22;61885;53.560;9.940;2024-03-29T05:47:30;6.90;84.80
4673;DHT22;61885;53.560;9.940;2024-03-29T05:49:32;6.90;84.60
4673;DHT22;61885;53.560;9.940;2024-03-29T05:51:34;6.90;84.60
4673;DHT22;61885;53.560;9.940;2024-03-29T05:53:36;6.90;84.80
4673;DHT22;61885;53.560;9.940;2024-03-29T05:55:40;6.90;84.20
4673;DHT22;61885;53.560;9.940;2024-03-29T05:57:41;6.90;84.30
4673;DHT22;61885;53.560;9.940;2024-03-29T05:59:45;7.10;84.30
4673;DHT22;61885;53.560;9.940;2024-03-29T06:01:47;7.00;84.40
4673;DHT22;61885;53.560;9.940;2024-03-29T06:03:49;7.00;84.10
4673;DHT22;61885;53.560;9.940;2024-03-29T06:05:53;7.00;84.00
4673;DHT22;61885;53.560;9.940;2024-03-29T06:07:55;7.10;83.90
4673;DHT22;61885;53.560;9.940;2024-03-29T06:09:57;7.10;83.90
4673;DHT22;61885;53.560;9.940;2024-03-29T06:11:59;7.20;83.70
4673;DHT22;61885;53.560;9.940;2024-03-29T06:14:01;7.20;83.40
4673;DHT22;61885;53.560;9.940;2024-03-29T06:16:21;7.30;83.40
4673;DHT22;61885;53.560;9.940;2024-03-29T06:18:40;7.30;83.30
4673;DHT22;61885;53.560;9.940;2024-03-29T06:20:42;7.30;83.20
4673;DHT22;61885;53.560;9.940;2024-03-29T06:22:44;7.30;83.10
4673;DHT22;61885;53.560;9.940;2024-03-29T06:24:46;7.30;83.00
4673;DHT22;61885;53.560;9.940;2024-03-29T06:26:49;7.30;83.00
4673;DHT22;61885;53.560;9.940;2024-03-29T06:28:54;7.40;83.00
4673;DHT22;61885;53.560;9.940;2024-03-29T06:30:56;7.40;82.60
4673;DHT22;61885;53.560;9.940;2024-03-29T06:33:00;7.40;82.40
4673;DHT22;61885;53.560;9.940;2024-03-29T06:35:03;7.60;82.30
4673;DHT22;61885;53.560;9.940;2024-03-29T06:37:05;7.60;82.10
4673;DHT22;61885;53.560;9.940;2024-03-29T06:39:08;7.50;81.90
4673;DHT22;61885;53.560;9.940;2024-03-29T06:41:10;7.60;81.90
4673;DHT22;61885;53.560;9.940;2024-03-29T06:43:12;7.60;81.40
4673;DHT22;61885;53.560;9.940;2024-03-29T06:45:16;7.70;81.70
4673;DHT22;61885;53.560;9.940;2024-03-29T06:47:18;7.70;81.60
4673;DHT22;61885;53.560;9.940;2024-03-29T06:49:18;7.70;81.70
4673;DHT22;61885;53.560;9.940;2024-03-29T06:51:20;7.70;81.40
4673;DHT22;61885;53.560;9.940;2024-03-29T06:53:21;7.80;81.50
4673;DHT22;61885;53.560;9.940;2024-03-29T06:55:23;7.80;81.50
4673;DHT22;61885;53.560;9.940;2024-03-29T06:57:25;7.80;81.10
4673;DHT22;61885;53.560;9.940;2024-03-29T06:59:31;7.80;81.10
4673;DHT22;61885;53.560;9.940;2024-03-29T07:01:34;7.90;81.10
4673;DHT22;61885;53.560;9.940;2024-03-29T07:03:36;8.00;81.10
4673;DHT22;61885;53.560;9.940;2024-03-29T07:05:39;8.00;80.40
4673;DHT22;61885;53.560;9.940;2024-03-29T07:07:41;8.00;80.30
4673;DHT22;61885;53.560;9.940;2024-03-29T07:09:42;8.10;79.90
4673;DHT22;61885;53.560;9.940;2024-03-29T07:11:44;8.20;79.60
4673;DHT22;61885;53.560;9.940;2024-03-29T07:13:46;8.20;79.60
4673;DHT22;61885;53.560;9.940;2024-03-29T07:15:51;8.30;79.20
4673;DHT22;61885;53.560;9.940;2024-03-29T07:17:53;8.40;79.30
4673;DHT22;61885;53.560;9.940;2024-03-29T07:19:55;8.30;78.90
4673;DHT22;61885;53.560;9.940;2024-03-29T07:21:57;8.40;78.60
4673;DHT22;61885;53.560;9.940;2024-03-29T07:23:59;8.40;78.80
4673;DHT22;61885;53.560;9.940;2024-03-29T07:26:01;8.50;78.90
4673;DHT22;61885;53.560;9.940;2024-03-29T07:28:03;8.50;78.50
4673;DHT22;61885;53.560;9.940;2024-03-29T07:30:06;8.60;78.60
4673;DHT22;61885;53.560;9.940;2024-03-29T07:32:10;8.60;78.40
4673;DHT22;61885;53.560;9.940;2024-03-29T07:34:13;8.60;78.30
4673;DHT22;61885;53.560;9.940;2024-03-29T07:36:15;8.80;78.10
4673;DHT22;61885;53.560;9.940;2024-03-29T07:38:17;8.80;77.80
4673;DHT22;61885;53.560;9.940;2024-03-29T07:40:21;8.80;77.50
4673;DHT22;61885;53.560;9.940;2024-03-29T07:42:22;8.90;77.60
4673;DHT22;61885;53.560;9.940;2024-03-29T07:44:23;8.90;77.40
4673;DHT22;61885;53.560;9.940;2024-03-29T07:46:27;8.90;77.10
4673;DHT22;61885;53.560;9.940;2024-03-29T07:48:28;9.00;77.50
4673;DHT22;61885;53.560;9.940;2024-03-29T07:50:32;9.00;77.20
4673;DHT22;61885;53.560;9.940;2024-03-29T07:52:33;9.00;77.10
4673;DHT22;61885;53.560;9.940;2024-03-29T07:54:35;9.10;77.20
4673;DHT22;61885;53.560;9.940;2024-03-29T07:56:37;9.20;77.20
4673;DHT22;61885;53.560;9.940;2024-03-29T07:58:39;9.10;77.20
4673;DHT22;61885;53.560;9.940;2024-03-29T08:00:40;9.20;77.10
4673;DHT22;61885;53.560;9.940;2024-03-29T08:02:42;9.10;77.20
4673;DHT22;61885;53.560;9.940;2024-03-29T08:04:43;9.10;77.30
4673;DHT22;61885;53.560;9.940;2024-03-29T08:06:46;9.20;77.30
4673;DHT22;61885;53.560;9.940;2024-03-29T08:08:49;9.20;77.10
4673;DHT22;61885;53.560;9.940;2024-03-29T08:10:51;9.20;78.10
4673;DHT22;61885;53.560;9.940;2024-03-29T08:12:51;9.30;77.00
4673;DHT22;61885;53.560;9.940;2024-03-29T08:14:53;9.30;77.10
4673;DHT22;61885;53.560;9.940;2024-03-29T08:16:54;9.30;77.20
4673;DHT22;61885;53.560;9.940;2024-03-29T08:18:56;9.30;77.40
4673;DHT22;61885;53.560;9.940;2024-03-29T08:20:58;9.30;77.40
4673;DHT22;61885;53.560;9.940;2024-03-29T08:23:01;9.30;77.40
4673;DHT22;61885;53.560;9.940;2024-03-29T08:25:03;9.40;77.40
4673;DHT22;61885;53.560;9.940;2024-03-29T08:27:05;9.40;77.40
4673;DHT22;61885;53.560;9.940;2024-03-29T08:29:07;9.30;77.70
4673;DHT22;61885;53.560;9.940;2024-03-29T08:31:09;9.40;78.30
4673;DHT22;61885;53.560;9.940;2024-03-29T08:33:11;9.40;78.40
4673;DHT22;61885;53.560;9.940;2024-03-29T08:35:12;9.40;78.60
4673;DHT22;61885;53.560;9.940;2024-03-29T08:37:14;9.30;79.10
4673;DHT22;61885;53.560;9.940;2024-03-29T08:39:17;9.30;79.50
4673;DHT22;61885;53.560;9.940;2024-03-29T08:41:19;9.30;79.70
4673;DHT22;61885;53.560;9.940;2024-03-29T08:43:21;9.30;79.80
4673;DHT22;61885;53.560;9.940;2024-03-29T08:45:22;9.40;80.80
4673;DHT22;61885;53.560;9.940;2024-03-29T08:47:24;9.90;82.20
4673;DHT22;61885;53.560;9.940;2024-03-29T08:49:25;10.20;79.60
4673;DHT22;61885;53.560;9.940;2024-03-29T08:51:26;10.20;79.80
4673;DHT22;61885;53.560;9.940;2024-03-29T08:53:27;10.20;78.50
4673;DHT22;61885;53.560;9.940;2024-03-29T08:55:30;10.20;78.70
4673;DHT22;61885;53.560;9.940;2024-03-29T08:57:32;10.10;79.00
4673;DHT22;61885;53.560;9.940;2024-03-29T08:59:34;10.20;79.30
4673;DHT22;61885;53.560;9.940;2024-03-29T09:01:37;10.20;79.30
4673;DHT22;61885;53.560;9.940;2024-03-29T09:03:39;10.30;79.30
4673;DHT22;61885;53.560;9.940;2024-03-29T09:05:41;10.30;79.20
4673;DHT22;61885;53.560;9.940;2024-03-29T09:07:42;10.30;79.30
4673;DHT22;61885;53.560;9.940;2024-03-29T09:09:44;10.40;79.20
4673;DHT22;61885;53.560;9.940;2024-03-29T09:11:48;10.40;79.10
4673;DHT22;61885;53.560;9.940;2024-03-29T09:13:49;10.60;79.10
4673;DHT22;61885;53.560;9.940;2024-03-29T09:15:51;10.70;79.20
4673;DHT22;61885;53.560;9.940;2024-03-29T09:17:53;10.90;79.20
4673;DHT22;61885;53.560;9.940;2024-03-29T09:19:55;10.80;78.70
4673;DHT22;61885;53.560;9.940;2024-03-29T09:21:58;10.90;78.10
4673;DHT22;61885;53.560;9.940;2024-03-29T09:24:00;10.80;78.20
4673;DHT22;61885;53.560;9.940;2024-03-29T09:26:04;10.70;78.50
4673;DHT22;61885;53.560;9.940;2024-03-29T09:28:07;10.60;79.10
4673;DHT22;61885;53.560;9.940;2024-03-29T09:30:12;10.40;79.50
4673;DHT22;61885;53.560;9.940;2024-03-29T09:32:16;10.30;79.90
4673;DHT22;61885;53.560;9.940;2024-03-29T09:34:20;10.40;80.00
4673;DHT22;61885;53.560;9.940;2024-03-29T09:36:24;10.40;80.20
4673;DHT22;61885;53.560;9.940;2024-03-29T09:38:25;10.40;80.20
4673;DHT22;61885;53.560;9.940;2024-03-29T09:40:26;10.40;80.20
4673;DHT22;61885;53.560;9.940;2024-03-29T09:42:31;10.30;80.30
4673;DHT22;61885;53.560;9.940;2024-03-29T09:44:34;10.10;80.80
4673;DHT22;61885;53.560;9.940;2024-03-29T09:46:37;10.00;81.40
4673;DHT22;61885;53.560;9.940;2024-03-29T09:48:40;10.00;81.60
4673;DHT22;61885;53.560;9.940;2024-03-29T09:50:43;10.10;81.70
4673;DHT22;61885;53.560;9.940;2024-03-29T09:52:45;10.10;81.50
4673;DHT22;61885;53.560;9.940;2024-03-29T09:54:46;10.10;81.70
4673;DHT22;61885;53.560;9.940;2024-03-29T09:56:50;10.10;81.80
4673;DHT22;61885;53.560;9.940;2024-03-29T09:58:52;10.10;81.90
4673;DHT22;61885;53.560;9.940;2024-03-29T10:00:56;10.00;82.10
4673;DHT22;61885;53.560;9.940;2024-03-29T10:02:57;10.00;82.30
4673;DHT22;61885;53.560;9.940;2024-03-29T10:05:00;9.90;82.40
4673;DHT22;61885;53.560;9.940;2024-03-29T10:07:04;9.90;82.70
4673;DHT22;61885;53.560;9.940;2024-03-29T10:09:05;9.90;82.60
4673;DHT22;61885;53.560;9.940;2024-03-29T10:11:07;9.80;82.60
4673;DHT22;61885;53.560;9.940;2024-03-29T10:13:09;9.90;82.90
4673;DHT22;61885;53.560;9.940;2024-03-29T10:15:10;9.90;82.90
4673;DHT22;61885;53.560;9.940;2024-03-29T10:17:16;10.00;82.80
4673;DHT22;61885;53.560;9.940;2024-03-29T10:19:20;10.10;82.90
4673;DHT22;61885;53.560;9.940;2024-03-29T10:21:25;10.10;82.90
4673;DHT22;61885;53.560;9.940;2024-03-29T10:23:27;10.20;82.70
4673;DHT22;61885;53.560;9.940;2024-03-29T10:25:31;10.30;82.40
4673;DHT22;61885;53.560;9.940;2024-03-29T10:27:34;10.20;82.50
4673;DHT22;61885;53.560;9.940;2024-03-29T10:29:36;10.20;84.60
4673;DHT22;61885;53.560;9.940;2024-03-29T10:31:38;10.40;83.40
4673;DHT22;61885;53.560;9.940;2024-03-29T10:33:42;10.40;81.80
4673;DHT22;61885;53.560;9.940;2024-03-29T10:35:45;10.30;82.20
4673;DHT22;61885;53.560;9.940;2024-03-29T10:37:46;10.40;82.10
4673;DHT22;61885;53.560;9.940;2024-03-29T10:39:48;10.40;82.00
4673;DHT22;61885;53.560;9.940;2024-03-29T10:41:52;10.40;83.50
4673;DHT22;61885;53.560;9.940;2024-03-29T10:43:55;10.30;82.10
4673;DHT22;61885;53.560;9.940;2024-03-29T10:46:00;10.30;82.40
4673;DHT22;61885;53.560;9.940;2024-03-29T10:48:03;10.20;82.80
4673;DHT22;61885;53.560;9.940;2024-03-29T10:50:10;10.20;83.10
4673;DHT22;61885;53.560;9.940;2024-03-29T10:52:13;10.20;83.10
4673;DHT22;61885;53.560;9.940;2024-03-29T10:54:17;10.10;83.20
4673;DHT22;61885;53.560;9.940;2024-03-29T10:56:20;10.10;83.40
4673;DHT22;61885;53.560;9.940;2024-03-29T10:58:26;10.10;83.30
4673;DHT22;61885;53.560;9.940;2024-03-29T11:00:29;10.10;83.20
4673;DHT22;61885;53.560;9.940;2024-03-29T11:02:45;10.10;83.50
4673;DHT22;61885;53.560;9.940;2024-03-29T11:04:48;10.10;83.50
4673;DHT22;61885;53.560;9.940;2024-03-29T11:06:54;10.10;83.70
4673;DHT22;61885;53.560;9.940;2024-03-29T11:08:59;10.20;83.70
4673;DHT22;61885;53.560;9.940;2024-03-29T11:11:04;10.20;83.60
4673;DHT22;61885;53.560;9.940;2024-03-29T11:13:12;10.20;83.60
4673;DHT22;61885;53.560;9.940;2024-03-29T11:15:26;10.20;83.40
4673;DHT22;61885;53.560;9.940;2024-03-29T11:17:29;10.20;83.60
4673;DHT22;61885;53.560;9.940;2024-03-29T11:19:32;10.20;83.90
4673;DHT22;61885;53.560;9.940;2024-03-29T11:21:33;10.20;83.80
4673;DHT22;61885;53.560;9.940;2024-03-29T11:23:37;10.10;83.90
4673;DHT22;61885;53.560;9.940;2024-03-29T11:25:42;10.10;84.10
4673;DHT22;61885;53.560;9.940;2024-03-29T11:27:44;10.20;84.10
4673;DHT22;61885;53.560;9.940;2024-03-29T11:29:48;10.10;84.00
4673;DHT22;61885;53.560;9.940;2024-03-29T11:31:56;10.20;84.30
4673;DHT22;61885;53.560;9.940;2024-03-29T11:33:59;10.20;84.10
4673;DHT22;61885;53.560;9.940;2024-03-29T11:36:06;10.20;84.30
4673;DHT22;61885;53.560;9.940;2024-03-29T11:38:08;10.40;83.90
4673;DHT22;61885;53.560;9.940;2024-03-29T11:40:13;10.40;84.00
4673;DHT22;61885;53.560;9.940;2024-03-29T11:42:15;10.40;83.50
4673;DHT22;61885;53.560;9.940;2024-03-29T11:44:16;10.40;83.50
4673;DHT22;61885;53.560;9.940;2024-03-29T11:46:19;10.50;83.50
4673;DHT22;61885;53.560;9.940;2024-03-29T11:48:23;10.60;83.20
4673;DHT22;61885;53.560;9.940;2024-03-29T11:50:26;10.60;83.10
4673;DHT22;61885;53.560;9.940;2024-03-29T11:52:28;10.70;83.00
4673;DHT22;61885;53.560;9.940;2024-03-29T11:54:36;10.90;82.40
4673;DHT22;61885;53.560;9.940;2024-03-29T11:56:40;11.10;82.30
4673;DHT22;61885;53.560;9.940;2024-03-29T11:58:43;11.10;81.50
4673;DHT22;61885;53.560;9.940;2024-03-29T12:00:46;11.10;81.60
4673;DHT22;61885;53.560;9.940;2024-03-29T12:02:49;11.10;81.60
4673;DHT22;61885;53.560;9.940;2024-03-29T12:04:50;11.30;81.40
4673;DHT22;61885;53.560;9.940;2024-03-29T12:06:52;11.20;81.60
4673;DHT22;61885;53.560;9.940;2024-03-29T12:08:54;11.40;81.30
4673;DHT22;61885;53.560;9.940;2024-03-29T12:10:57;11.60;80.90
4673;DHT22;61885;53.560;9.940;2024-03-29T12:13:01;11.70;80.60
4673;DHT22;61885;53.560;9.940;2024-03-29T12:15:03;12.00;80.40
4673;DHT22;61885;53.560;9.940;2024-03-29T12:17:09;12.30;79.60
4673;DHT22;61885;53.560;9.940;2024-03-29T12:19:22;12.20;80.00
4673;DHT22;61885;53.560;9.940;2024-03-29T12:21:25;12.30;79.80
4673;DHT22;61885;53.560;9.940;2024-03-29T12:23:26;12.50;79.40
4673;DHT22;61885;53.560;9.940;2024-03-29T12:25:29;12.50;79.40
4673;DHT22;61885;53.560;9.940;2024-03-29T12:27:30;12.60;79.30
4673;DHT22;61885;53.560;9.940;2024-03-29T12:29:34;12.60;78.50
4673;DHT22;61885;53.560;9.940;2024-03-29T12:31:36;12.60;78.30
4673;DHT22;61885;53.560;9.940;2024-03-29T12:33:39;12.60;78.30
4673;DHT22;61885;53.560;9.940;2024-03-29T12:35:41;12.50;79.10
4673;DHT22;61885;53.560;9.940;2024-03-29T12:37:48;12.40;79.40
4673;DHT22;61885;53.560;9.940;2024-03-29T12:39:50;12.50;79.40
4673;DHT22;61885;53.560;9.940;2024-03-29T12:41:56;12.60;78.80
4673;DHT22;61885;53.560;9.940;2024-03-29T12:44:00;12.80;77.70
4673;DHT22;61885;53.560;9.940;2024-03-29T12:46:04;12.90;77.60
4673;DHT22;61885;53.560;9.940;2024-03-29T12:48:09;13.00;77.20
4673;DHT22;61885;53.560;9.940;2024-03-29T12:50:13;13.00;77.00
4673;DHT22;61885;53.560;9.940;2024-03-29T12:52:16;13.00;76.90
4673;DHT22;61885;53.560;9.940;2024-03-29T12:54:18;12.80;77.30
4673;DHT22;61885;53.560;9.940;2024-03-29T12:56:19;12.70;78.10
4673;DHT22;61885;53.560;9.940;2024-03-29T12:58:21;12.80;77.30
4673;DHT22;61885;53.560;9.940;2024-03-29T13:00:23;12.90;77.30
4673;DHT22;61885;53.560;9.940;2024-03-29T13:02:26;12.90;77.00
4673;DHT22;61885;53.560;9.940;2024-03-29T13:04:28;12.80;77.50
4673;DHT22;61885;53.560;9.940;2024-03-29T13:06:30;12.90;77.30
4673;DHT22;61885;53.560;9.940;2024-03-29T13:08:32;12.90;77.00
4673;DHT22;61885;53.560;9.940;2024-03-29T13:10:36;12.80;77.30
4673;DHT22;61885;53.560;9.940;2024-03-29T13:12:40;12.70;77.20
4673;DHT22;61885;53.560;9.940;2024-03-29T13:14:43;12.70;77.40
4673;DHT22;61885;53.560;9.940;2024-03-29T13:16:45;12.80;77.70
4673;DHT22;61885;53.560;9.940;2024-03-29T13:18:48;12.70;77.80